Muribeca dos Guararapes, Brazil
Current Conditions -  °F | °C
As of 10:00 AM on Thursday 27 Nov 2014 (Local Time) from SBRF Reporting Station
Rain Showers Rain Showers  
Wind Chill: 26°   Ceiling: 2000
Heat Index: 28°   Visibility: 5mi
Dew Point: 24°   Wind: 8mph
Humidity: 89%   Direction: 70°ENE
Pressure: 29.94"   Gusts: NA
Location:  8.15°S, 34.97°W
Report Text: SBRF 271300Z 07007KT 8000 VCSH BKN020 BKN060 26/24 Q1014
Loading
Personal Weather Stations






























Interactive Weather Map New forecast layout! Learn more

10-Day Weather Forecast

Advertisements
Track Severe Weather on mobile